createdAt,value
2023-01-01T00:02:25.118Z,98.30
2023-01-01T00:04:54.224Z,97.82
2023-01-01T00:07:23.377Z,98.25
2023-01-01T00:10:05.658Z,98.67
2023-01-01T00:12:36.801Z,99.08
2023-01-01T00:15:11.296Z,98.67
2023-01-01T00:20:35.539Z,98.48
2023-01-01T00:23:16.372Z,98.20
2023-01-01T00:25:46.117Z,98.24
2023-01-01T00:28:17.100Z,98.39
2023-01-01T00:30:46.676Z,98.54
2023-01-01T00:33:15.809Z,98.59
2023-01-01T00:35:44.966Z,98.73
2023-01-01T00:38:14.739Z,98.91
2023-01-01T00:40:43.984Z,98.76
2023-01-01T00:43:13.170Z,99.36
2023-01-01T00:45:54.669Z,99.56
2023-01-01T00:48:23.944Z,99.37
2023-01-01T00:50:54.109Z,99.66
2023-01-01T00:53:24.038Z,99.80
2023-01-01T00:56:01.074Z,99.92
2023-01-01T00:58:30.847Z,100.00
2023-01-01T01:01:13.954Z,100.00
2023-01-01T01:03:43.511Z,99.63
2023-01-01T01:06:15.005Z,100.00
2023-01-01T01:08:46.426Z,100.00
2023-01-01T01:11:17.338Z,100.00
2023-01-01T01:13:49.671Z,100.00
2023-01-01T01:16:27.745Z,100.00
2023-01-01T01:19:05.149Z,100.00
2023-01-01T01:21:35.838Z,100.00
2023-01-01T01:24:05.809Z,100.00
2023-01-01T01:26:41.350Z,100.00
2023-01-01T01:29:15.533Z,100.00
2023-01-01T01:31:48.025Z,100.00
2023-01-01T01:34:21.142Z,100.00
2023-01-01T01:36:53.775Z,100.00
2023-01-01T01:39:22.868Z,100.00
2023-01-01T01:41:57.451Z,100.00
2023-01-01T01:44:52.999Z,100.00
2023-01-01T01:47:33.515Z,100.00
2023-01-01T01:50:10.656Z,100.00
2023-01-01T01:52:44.032Z,100.00
2023-01-01T01:55:14.279Z,100.00
2023-01-01T02:03:24.410Z,100.00
2023-01-01T02:05:59.533Z,100.00
2023-01-01T02:08:35.783Z,100.00
2023-01-01T02:11:10.034Z,100.00
2023-01-01T02:13:41.453Z,100.00
2023-01-01T02:16:20.542Z,100.00
2023-01-01T02:19:00.982Z,100.00
2023-01-01T02:21:33.358Z,100.00
2023-01-01T02:24:20.998Z,100.00
2023-01-01T02:26:58.704Z,100.00
2023-01-01T02:29:49.041Z,100.00
2023-01-01T02:32:22.208Z,100.00
2023-01-01T02:34:56.779Z,100.00
2023-01-01T02:37:30.304Z,100.00
2023-01-01T02:40:05.779Z,100.00
2023-01-01T02:42:40.705Z,100.00
2023-01-01T02:45:13.473Z,100.00
2023-01-01T02:47:42.776Z,100.00
2023-01-01T02:50:15.706Z,100.00
2023-01-01T02:52:54.909Z,100.00
2023-01-01T02:55:36.670Z,100.00
2023-01-01T02:58:26.083Z,100.00
2023-01-01T03:01:03.987Z,100.00
2023-01-01T03:03:40.810Z,100.00
2023-01-01T03:06:25.946Z,100.00
2023-01-01T03:09:04.598Z,100.00
2023-01-01T03:11:39.969Z,100.00
2023-01-01T03:14:28.967Z,100.00
2023-01-01T03:17:07.196Z,100.00
2023-01-01T03:19:39.522Z,100.00
2023-01-01T03:22:11.526Z,100.00
2023-01-01T03:24:45.924Z,100.00
2023-01-01T03:27:21.186Z,100.00
2023-01-01T03:29:53.410Z,100.00
2023-01-01T03:32:49.239Z,100.00
2023-01-01T03:35:26.730Z,100.00
2023-01-01T03:37:58.144Z,100.00
2023-01-01T03:40:36.844Z,100.00
2023-01-01T03:43:10.966Z,100.00
2023-01-01T03:45:49.775Z,100.00
2023-01-01T03:48:21.122Z,100.00
2023-01-01T03:51:00.505Z,100.00
2023-01-01T03:53:38.824Z,100.00
2023-01-01T03:56:15.557Z,100.00
2023-01-01T03:58:51.321Z,99.59
2023-01-01T04:01:30.929Z,99.75
2023-01-01T04:04:03.055Z,99.79
2023-01-01T04:06:34.335Z,100.00
2023-01-01T04:09:06.435Z,100.00
2023-01-01T04:11:50.240Z,100.00
2023-01-01T04:14:29.597Z,99.88
2023-01-01T04:17:07.416Z,100.00
2023-01-01T04:19:38.741Z,99.97
2023-01-01T04:22:08.168Z,100.00
2023-01-01T04:24:37.800Z,100.00
2023-01-01T04:27:07.102Z,100.00
2023-01-01T04:29:38.163Z,100.00
2023-01-01T04:32:07.463Z,100.00
2023-01-01T04:34:43.596Z,100.00
2023-01-01T04:37:13.604Z,100.00
2023-01-01T04:39:43.184Z,100.00
2023-01-01T04:42:17.321Z,100.00
2023-01-01T04:44:51.525Z,100.00
2023-01-01T04:47:21.743Z,100.00
2023-01-01T04:50:02.071Z,100.00
2023-01-01T04:52:32.615Z,100.00
2023-01-01T04:57:56.465Z,100.00
2023-01-01T05:00:25.678Z,100.00
2023-01-01T05:02:59.921Z,100.00
2023-01-01T05:05:31.355Z,100.00
2023-01-01T05:08:00.644Z,100.00
2023-01-01T05:10:29.745Z,100.00
2023-01-01T05:12:58.903Z,100.00
2023-01-01T05:15:32.947Z,100.00
2023-01-01T05:18:02.486Z,100.00
2023-01-01T05:20:33.644Z,100.00
2023-01-01T05:25:42.424Z,100.00
2023-01-01T05:28:11.692Z,100.00
2023-01-01T05:30:48.315Z,100.00
2023-01-01T05:33:17.508Z,100.00
2023-01-01T05:35:55.343Z,100.00
2023-01-01T05:38:24.504Z,100.00
2023-01-01T05:40:53.775Z,100.00
2023-01-01T05:43:23.363Z,100.00
2023-01-01T05:46:01.861Z,100.00
2023-01-01T05:48:31.448Z,100.00
2023-01-01T05:51:07.828Z,100.00
2023-01-01T05:53:37.679Z,100.00
2023-01-01T05:56:08.209Z,100.00
2023-01-01T05:58:38.616Z,100.00
2023-01-01T06:01:09.585Z,100.00
2023-01-01T06:03:39.270Z,100.00
2023-01-01T06:06:12.773Z,100.00
2023-01-01T06:08:42.290Z,100.00
2023-01-01T06:11:13.765Z,100.00
2023-01-01T06:13:43.005Z,100.00
2023-01-01T06:16:12.883Z,100.00
2023-01-01T06:18:48.780Z,100.00
2023-01-01T06:21:21.870Z,100.00
2023-01-01T06:23:51.403Z,100.00
2023-01-01T06:26:22.425Z,100.00
2023-01-01T06:28:52.387Z,100.00
2023-01-01T06:31:27.815Z,100.00
2023-01-01T06:33:57.424Z,100.00
2023-01-01T06:36:29.133Z,100.00
2023-01-01T06:38:59.687Z,100.00
2023-01-01T06:41:33.990Z,100.00
2023-01-01T06:44:04.151Z,100.00
2023-01-01T06:46:35.112Z,100.00
2023-01-01T06:49:11.803Z,100.00
2023-01-01T06:51:45.154Z,100.00
2023-01-01T06:54:14.471Z,100.00
2023-01-01T06:56:43.614Z,100.00
2023-01-01T06:59:18.430Z,100.00
2023-01-01T07:04:31.254Z,100.00
2023-01-01T07:07:02.544Z,100.00
2023-01-01T07:09:40.246Z,100.00
2023-01-01T07:12:09.720Z,100.00
2023-01-01T07:14:38.783Z,100.00
2023-01-01T07:17:08.478Z,100.00
2023-01-01T07:19:37.756Z,100.00
2023-01-01T07:22:11.187Z,100.00
2023-01-01T07:24:40.682Z,100.00
2023-01-01T07:27:09.807Z,100.00
2023-01-01T07:29:39.015Z,100.00
2023-01-01T07:32:08.545Z,100.00
2023-01-01T07:34:37.818Z,100.00
2023-01-01T07:37:09.479Z,100.00
2023-01-01T07:39:38.826Z,100.00
2023-01-01T07:42:11.114Z,100.00
2023-01-01T07:44:40.599Z,100.00
2023-01-01T07:47:25.253Z,100.00
2023-01-01T07:49:55.082Z,100.00
2023-01-01T07:52:26.555Z,100.00
2023-01-01T07:54:56.373Z,100.00
2023-01-01T07:57:25.579Z,100.00
2023-01-01T07:59:54.712Z,100.00
2023-01-01T08:02:23.887Z,100.00
2023-01-01T08:04:53.165Z,100.00
2023-01-01T08:07:36.332Z,100.00
2023-01-01T08:10:06.205Z,100.00
2023-01-01T08:12:35.768Z,100.00
2023-01-01T08:15:05.247Z,100.00
2023-01-01T08:17:34.697Z,100.00
2023-01-01T08:20:04.005Z,100.00
2023-01-01T08:22:38.255Z,100.00
2023-01-01T08:25:10.625Z,100.00
2023-01-01T08:27:39.932Z,100.00
2023-01-01T08:30:11.060Z,100.00
2023-01-01T08:32:40.306Z,100.00
2023-01-01T08:35:10.224Z,100.00
2023-01-01T08:37:39.302Z,100.00
2023-01-01T08:40:14.092Z,100.00
2023-01-01T08:42:48.677Z,100.00
2023-01-01T08:45:22.928Z,100.00
2023-01-01T08:47:52.146Z,100.00
2023-01-01T08:50:21.250Z,100.00
2023-01-01T08:52:50.457Z,100.00
2023-01-01T08:55:21.619Z,100.00
2023-01-01T08:57:57.246Z,100.00
2023-01-01T09:00:26.400Z,100.00
2023-01-01T09:02:55.650Z,100.00
2023-01-01T09:05:24.970Z,100.00
2023-01-01T09:07:54.352Z,100.00
2023-01-01T09:10:26.194Z,100.00
2023-01-01T09:12:55.445Z,100.00
2023-01-01T09:15:24.704Z,100.00
2023-01-01T09:17:53.937Z,100.00
2023-01-01T09:20:23.202Z,100.00
2023-01-01T09:22:52.407Z,100.00
2023-01-01T09:25:21.861Z,100.00
2023-01-01T09:27:59.000Z,100.00
2023-01-01T09:30:28.520Z,100.00
2023-01-01T09:32:57.682Z,100.00
2023-01-01T09:35:32.067Z,100.00
2023-01-01T09:38:01.194Z,100.00
2023-01-01T09:40:39.072Z,100.00
2023-01-01T09:43:20.594Z,100.00
2023-01-01T09:45:58.640Z,100.00
2023-01-01T09:48:30.464Z,100.00
2023-01-01T09:54:01.377Z,100.00
2023-01-01T09:56:32.827Z,100.00
2023-01-01T09:59:04.156Z,100.00
2023-01-01T10:01:44.655Z,100.00
2023-01-01T10:07:20.414Z,100.00
2023-01-01T10:13:02.477Z,100.00
2023-01-01T10:15:36.614Z,100.00
2023-01-01T10:18:16.570Z,100.00
2023-01-01T10:20:50.136Z,100.00
2023-01-01T10:23:25.537Z,100.00
2023-01-01T10:25:57.832Z,100.00
2023-01-01T10:28:37.240Z,100.00
2023-01-01T10:31:22.604Z,100.00
2023-01-01T10:33:53.109Z,100.00
2023-01-01T10:36:22.658Z,100.00
2023-01-01T10:38:52.774Z,100.00
2023-01-01T10:41:22.106Z,100.00
2023-01-01T10:43:52.904Z,100.00
2023-01-01T10:46:31.645Z,100.00
2023-01-01T10:49:10.580Z,100.00
2023-01-01T10:51:44.692Z,100.00
2023-01-01T10:54:35.862Z,100.00
2023-01-01T10:57:20.226Z,100.00
2023-01-01T10:59:54.234Z,100.00
2023-01-01T11:02:27.599Z,100.00
2023-01-01T11:05:21.106Z,100.00
2023-01-01T11:07:51.653Z,100.00
2023-01-01T11:10:23.419Z,100.00
2023-01-01T11:13:09.179Z,100.00
2023-01-01T11:15:41.874Z,100.00
2023-01-01T11:18:24.122Z,100.00
2023-01-01T11:21:00.358Z,100.00
2023-01-01T11:23:32.714Z,100.00
2023-01-01T11:26:08.645Z,100.00
2023-01-01T11:28:38.044Z,100.00
2023-01-01T11:31:19.717Z,100.00
2023-01-01T11:33:54.201Z,100.00
2023-01-01T11:36:26.092Z,100.00
2023-01-01T11:39:06.187Z,100.00
2023-01-01T11:41:49.400Z,100.00
2023-01-01T11:44:31.668Z,100.00
2023-01-01T11:47:01.579Z,100.00
2023-01-01T11:49:33.243Z,100.00
2023-01-01T11:52:02.467Z,100.00
2023-01-01T11:54:37.673Z,100.00
2023-01-01T11:57:16.095Z,100.00
2023-01-01T11:59:50.734Z,100.00
2023-01-01T12:02:32.263Z,100.00
2023-01-01T12:05:12.436Z,100.00
2023-01-01T12:07:45.103Z,100.00
2023-01-01T12:10:22.247Z,100.00
2023-01-01T12:12:59.467Z,100.00
2023-01-01T12:15:40.228Z,100.00
2023-01-01T12:18:18.353Z,100.00
2023-01-01T12:20:55.242Z,100.00
2023-01-01T12:23:24.698Z,100.00
2023-01-01T12:26:02.981Z,100.00
2023-01-01T12:28:41.135Z,100.00
2023-01-01T12:31:20.841Z,100.00
2023-01-01T12:34:03.675Z,100.00
2023-01-01T12:36:46.471Z,100.00
2023-01-01T12:39:59.475Z,100.00
2023-01-01T12:42:41.658Z,100.00
2023-01-01T12:45:30.753Z,100.00
2023-01-01T12:58:06.156Z,100.00
2023-01-01T13:03:38.424Z,100.00
2023-01-01T13:06:10.372Z,100.00
2023-01-01T13:08:41.757Z,100.00
2023-01-01T13:11:20.364Z,100.00
2023-01-01T13:13:50.120Z,100.00
2023-01-01T13:16:39.371Z,100.00
2023-01-01T13:19:09.266Z,100.00
2023-01-01T13:21:41.438Z,100.00
2023-01-01T13:24:23.597Z,100.00
2023-01-01T13:26:55.941Z,100.00
2023-01-01T13:29:47.899Z,100.00
2023-01-01T13:32:17.864Z,100.00
2023-01-01T13:35:16.897Z,100.00
2023-01-01T13:37:50.437Z,100.00
2023-01-01T13:40:52.419Z,100.00
2023-01-01T13:43:33.423Z,100.00
2023-01-01T13:46:14.787Z,100.00
2023-01-01T13:49:22.641Z,100.00
2023-01-01T13:52:21.386Z,100.00
2023-01-01T13:55:34.355Z,100.00
2023-01-01T13:58:25.565Z,100.00
2023-01-01T14:01:19.292Z,100.00
2023-01-01T14:03:51.970Z,100.00
2023-01-01T14:06:31.803Z,100.00
2023-01-01T14:09:08.392Z,100.00
2023-01-01T14:11:37.689Z,100.00
2023-01-01T14:14:23.814Z,100.00
2023-01-01T14:17:02.566Z,100.00
2023-01-01T14:19:37.070Z,100.00
2023-01-01T14:22:09.918Z,100.00
2023-01-01T14:24:42.780Z,100.00
2023-01-01T14:27:15.711Z,100.00
2023-01-01T14:29:48.838Z,100.00
2023-01-01T14:32:25.199Z,100.00
2023-01-01T14:35:02.334Z,100.00
2023-01-01T14:37:35.877Z,100.00
2023-01-01T14:40:20.436Z,100.00
2023-01-01T14:42:59.128Z,100.00
2023-01-01T14:45:28.584Z,100.00
2023-01-01T14:48:00.762Z,100.00
2023-01-01T14:50:33.617Z,100.00
2023-01-01T14:53:18.404Z,100.00
2023-01-01T14:55:49.753Z,100.00
2023-01-01T14:58:21.481Z,100.00
2023-01-01T15:00:52.571Z,100.00
2023-01-01T15:03:25.023Z,100.00
2023-01-01T15:06:00.744Z,100.00
2023-01-01T15:08:30.295Z,100.00
2023-01-01T15:10:59.663Z,100.00
2023-01-01T15:13:30.253Z,100.00
2023-01-01T15:16:17.637Z,100.00
2023-01-01T15:18:50.324Z,100.00
2023-01-01T15:24:14.442Z,100.00
2023-01-01T15:26:45.956Z,100.00
2023-01-01T15:29:27.933Z,100.00
2023-01-01T15:32:00.772Z,100.00
2023-01-01T15:34:34.269Z,100.00
2023-01-01T15:37:14.252Z,100.00
2023-01-01T15:42:34.232Z,100.00
2023-01-01T15:45:23.137Z,100.00
2023-01-01T15:47:58.577Z,100.00
2023-01-01T15:50:34.342Z,100.00
2023-01-01T15:53:16.945Z,100.00
2023-01-01T15:55:48.664Z,100.00
2023-01-01T15:58:28.970Z,100.00
2023-01-01T16:01:01.050Z,100.00
2023-01-01T16:03:33.139Z,100.00
2023-01-01T16:06:05.144Z,100.00
2023-01-01T16:08:34.049Z,100.00
2023-01-01T16:13:51.845Z,100.00
2023-01-01T16:16:28.454Z,100.00
2023-01-01T16:19:04.464Z,100.00
2023-01-01T16:21:36.215Z,100.00
2023-01-01T16:24:05.960Z,100.00
2023-01-01T16:26:35.032Z,100.00
2023-01-01T16:29:09.493Z,100.00
2023-01-01T16:31:39.220Z,100.00
2023-01-01T16:34:08.962Z,100.00
2023-01-01T16:36:40.188Z,100.00
2023-01-01T16:39:10.479Z,100.00
2023-01-01T16:41:42.732Z,100.00
2023-01-01T16:44:15.882Z,100.00
2023-01-01T16:46:45.232Z,100.00
2023-01-01T16:49:14.433Z,100.00
2023-01-01T16:51:46.341Z,100.00
2023-01-01T16:54:15.601Z,100.00
2023-01-01T16:56:44.748Z,100.00
2023-01-01T16:59:19.143Z,100.00
2023-01-01T17:01:48.370Z,100.00
2023-01-01T17:04:17.570Z,100.00
2023-01-01T17:06:48.745Z,100.00
2023-01-01T17:09:17.972Z,100.00
2023-01-01T17:11:47.525Z,100.00
2023-01-01T17:14:16.792Z,100.00
2023-01-01T17:16:46.637Z,100.00
2023-01-01T17:19:17.071Z,100.00
2023-01-01T17:21:55.386Z,100.00
2023-01-01T17:24:29.746Z,100.00
2023-01-01T17:26:59.092Z,100.00
2023-01-01T17:29:28.487Z,100.00
2023-01-01T17:32:02.982Z,100.00
2023-01-01T17:34:32.126Z,100.00
2023-01-01T17:37:14.142Z,100.00
2023-01-01T17:39:43.287Z,100.00
2023-01-01T17:42:12.411Z,100.00
2023-01-01T17:44:41.578Z,100.00
2023-01-01T17:47:10.856Z,100.00
2023-01-01T17:49:40.818Z,100.00
2023-01-01T17:52:12.769Z,100.00
2023-01-01T17:54:41.964Z,100.00
2023-01-01T17:57:16.656Z,100.00
2023-01-01T17:59:45.987Z,100.00
2023-01-01T18:02:16.248Z,100.00
2023-01-01T18:04:51.126Z,100.00
2023-01-01T18:07:22.904Z,100.00
2023-01-01T18:09:52.559Z,100.00
2023-01-01T18:12:21.769Z,100.00
2023-01-01T18:14:52.427Z,100.00
2023-01-01T18:17:27.574Z,100.00
2023-01-01T18:19:56.971Z,100.00
2023-01-01T18:22:28.236Z,100.00
2023-01-01T18:24:57.612Z,100.00
2023-01-01T18:27:26.664Z,100.00
2023-01-01T18:30:01.046Z,100.00
2023-01-01T18:32:33.394Z,100.00
2023-01-01T18:35:09.013Z,100.00
2023-01-01T18:37:40.289Z,100.00
2023-01-01T18:40:14.645Z,100.00
2023-01-01T18:42:54.935Z,100.00
2023-01-01T18:45:29.194Z,100.00
2023-01-01T18:47:58.834Z,100.00
2023-01-01T18:50:31.611Z,100.00
2023-01-01T18:53:13.777Z,100.00
2023-01-01T18:55:43.473Z,100.00
2023-01-01T18:58:19.547Z,100.00
2023-01-01T19:00:49.039Z,100.00
2023-01-01T19:03:27.610Z,100.00
2023-01-01T19:05:57.849Z,100.00
2023-01-01T19:08:31.445Z,100.00
2023-01-01T19:11:04.640Z,100.00
2023-01-01T19:13:35.487Z,100.00
2023-01-01T19:16:28.843Z,100.00
2023-01-01T19:19:07.259Z,100.00
2023-01-01T19:21:36.546Z,100.00
2023-01-01T19:24:16.236Z,100.00
2023-01-01T19:29:25.036Z,100.00
2023-01-01T19:31:56.054Z,100.00
2023-01-01T19:34:34.965Z,100.00
2023-01-01T19:37:04.807Z,100.00
2023-01-01T19:39:36.336Z,100.00
2023-01-01T19:42:10.936Z,100.00
2023-01-01T19:44:40.129Z,100.00
2023-01-01T19:47:10.280Z,100.00
2023-01-01T19:49:44.485Z,100.00
2023-01-01T19:52:13.710Z,100.00
2023-01-01T19:54:50.938Z,100.00
2023-01-01T19:57:20.981Z,100.00
2023-01-01T19:59:50.217Z,100.00
2023-01-01T20:02:45.559Z,100.00
2023-01-01T20:05:13.689Z,100.00
2023-01-01T20:07:42.891Z,100.00
2023-01-01T20:10:19.207Z,100.00
2023-01-01T20:12:48.512Z,100.00
2023-01-01T20:15:17.895Z,100.00
2023-01-01T20:17:53.087Z,100.00
2023-01-01T20:20:22.207Z,100.00
2023-01-01T20:22:51.491Z,100.00
2023-01-01T20:25:27.722Z,100.00
2023-01-01T20:28:09.876Z,100.00
2023-01-01T20:30:44.209Z,100.00
2023-01-01T20:33:13.521Z,100.00
2023-01-01T20:35:55.660Z,100.00
2023-01-01T20:38:25.072Z,100.00
2023-01-01T20:40:56.109Z,100.00
2023-01-01T20:43:30.382Z,100.00
2023-01-01T20:45:59.722Z,100.00
2023-01-01T20:48:28.837Z,100.00
2023-01-01T20:50:58.235Z,100.00
2023-01-01T20:53:32.437Z,100.00
2023-01-01T20:56:05.078Z,100.00
2023-01-01T20:58:34.315Z,100.00
2023-01-01T21:01:03.591Z,100.00
2023-01-01T21:03:33.343Z,100.00
2023-01-01T21:06:02.541Z,100.00
2023-01-01T21:08:31.786Z,100.00
2023-01-01T21:11:08.007Z,100.00
2023-01-01T21:13:37.355Z,100.00
2023-01-01T21:16:26.839Z,100.00
2023-01-01T21:18:57.655Z,100.00
2023-01-01T21:21:31.354Z,100.00
2023-01-01T21:24:04.199Z,100.00
2023-01-01T21:26:46.406Z,100.00
2023-01-01T21:29:17.758Z,100.00
2023-01-01T21:31:47.332Z,100.00
2023-01-01T21:34:28.308Z,100.00
2023-01-01T21:37:08.051Z,100.00
2023-01-01T21:39:37.443Z,100.00
2023-01-01T21:42:23.991Z,100.00
2023-01-01T21:44:58.760Z,100.00
2023-01-01T21:47:28.298Z,100.00
2023-01-01T21:49:58.121Z,100.00
2023-01-01T21:52:32.298Z,100.00
2023-01-01T21:55:03.387Z,100.00
2023-01-01T21:57:36.111Z,100.00
2023-01-01T22:00:17.712Z,100.00
2023-01-01T22:02:48.707Z,100.00
2023-01-01T22:05:36.604Z,100.00
2023-01-01T22:11:00.117Z,100.00
2023-01-01T22:13:31.132Z,100.00
2023-01-01T22:16:02.718Z,100.00
2023-01-01T22:18:42.582Z,100.00
2023-01-01T22:21:17.652Z,100.00
2023-01-01T22:23:47.889Z,100.00
2023-01-01T22:26:20.134Z,100.00
2023-01-01T22:28:55.897Z,100.00
2023-01-01T22:31:35.884Z,100.00
2023-01-01T22:34:06.228Z,100.00
2023-01-01T22:36:42.503Z,100.00
2023-01-01T22:39:17.138Z,100.00
2023-01-01T22:42:00.630Z,100.00
2023-01-01T22:44:35.365Z,100.00
2023-01-01T22:47:05.280Z,100.00
2023-01-01T22:49:37.969Z,100.00
2023-01-01T22:52:07.511Z,100.00
2023-01-01T22:54:36.948Z,100.00
2023-01-01T22:57:13.329Z,100.00
2023-01-01T22:59:44.415Z,100.00
2023-01-01T23:02:13.634Z,100.00
2023-01-01T23:04:42.862Z,100.00
2023-01-01T23:07:22.248Z,100.00
2023-01-01T23:09:51.518Z,100.00
2023-01-01T23:12:20.685Z,100.00
2023-01-01T23:15:04.923Z,100.00
2023-01-01T23:17:34.345Z,100.00
2023-01-01T23:20:03.491Z,100.00
2023-01-01T23:22:41.699Z,100.00
2023-01-01T23:25:15.055Z,100.00
2023-01-01T23:27:45.006Z,100.00
2023-01-01T23:30:17.181Z,100.00
2023-01-01T23:32:51.581Z,100.00
2023-01-01T23:35:20.934Z,100.00
2023-01-01T23:37:52.352Z,100.00
2023-01-01T23:40:23.636Z,100.00
2023-01-01T23:42:53.405Z,100.00
2023-01-01T23:45:27.196Z,100.00
2023-01-01T23:48:03.843Z,100.00
2023-01-01T23:50:33.193Z,100.00
2023-01-01T23:53:02.589Z,100.00
2023-01-01T23:55:36.864Z,100.00
2023-01-01T23:58:05.983Z,100.00
